Allen, Louisiana
Current Conditions -  °F | °C
As of 1:35 PM on Thursday 30 Oct 2014 (Local Time) from KIER Reporting Station
Clear Clear  
Wind Chill: 73°   Ceiling: Unl
Heat Index: 73°   Visibility: 10mi
Dew Point: 45°   Wind: 5mph
Humidity: 36%   Direction: 150°SSE
Pressure: 30.13"   Gusts: NA
Location:  31.8112°N, 93.3051°W
Report Text: KIER 301835Z AUTO 15004KT 10SM CLR 23/07 A3013 RMK AO2 T02300073
Loading
Personal Weather Stations






























Interactive Weather Map
Tropical Storm Tracking
New forecast layout! Learn more

10-Day Weather Forecast

Advertisements
Track Severe Weather on mobile